sensor_id;sensor_type;location;lat;lon;timestamp;P1;durP1;ratioP1;P2;durP2;ratioP2
5533;SDS011;2789;51.902;7.636;2022-10-16T00:00:41;6.03;;;5.03;;
5533;SDS011;2789;51.902;7.636;2022-10-16T00:01:44;8.13;;;4.93;;
5533;SDS011;2789;51.902;7.636;2022-10-16T00:02:47;9.38;;;5.43;;
5533;SDS011;2789;51.902;7.636;2022-10-16T00:03:48;7.22;;;4.95;;
5533;SDS011;2789;51.902;7.636;2022-10-16T00:04:51;7.47;;;5.03;;
5533;SDS011;2789;51.902;7.636;2022-10-16T00:05:58;9.90;;;5.50;;
5533;SDS011;2789;51.902;7.636;2022-10-16T00:07:01;8.00;;;5.10;;
5533;SDS011;2789;51.902;7.636;2022-10-16T00:08:03;9.00;;;5.40;;
5533;SDS011;2789;51.902;7.636;2022-10-16T00:09:07;10.73;;;5.97;;
5533;SDS011;2789;51.902;7.636;2022-10-16T00:10:09;9.85;;;5.32;;
5533;SDS011;2789;51.902;7.636;2022-10-16T00:11:13;7.60;;;5.90;;
5533;SDS011;2789;51.902;7.636;2022-10-16T00:12:16;7.20;;;4.45;;
5533;SDS011;2789;51.902;7.636;2022-10-16T00:13:18;7.40;;;4.93;;
5533;SDS011;2789;51.902;7.636;2022-10-16T00:14:21;7.05;;;5.18;;
5533;SDS011;2789;51.902;7.636;2022-10-16T00:15:24;10.23;;;5.28;;
5533;SDS011;2789;51.902;7.636;2022-10-16T00:16:26;8.98;;;5.40;;
5533;SDS011;2789;51.902;7.636;2022-10-16T00:17:29;9.20;;;5.55;;
5533;SDS011;2789;51.902;7.636;2022-10-16T00:18:31;9.15;;;6.00;;
5533;SDS011;2789;51.902;7.636;2022-10-16T00:19:33;6.70;;;5.68;;
5533;SDS011;2789;51.902;7.636;2022-10-16T00:20:35;6.70;;;5.13;;
5533;SDS011;2789;51.902;7.636;2022-10-16T00:21:38;10.20;;;5.53;;
5533;SDS011;2789;51.902;7.636;2022-10-16T00:22:40;7.88;;;5.00;;
5533;SDS011;2789;51.902;7.636;2022-10-16T00:23:42;8.82;;;5.53;;
5533;SDS011;2789;51.902;7.636;2022-10-16T00:24:45;10.57;;;5.43;;
5533;SDS011;2789;51.902;7.636;2022-10-16T00:25:54;7.20;;;5.25;;
5533;SDS011;2789;51.902;7.636;2022-10-16T00:26:56;9.00;;;5.13;;
5533;SDS011;2789;51.902;7.636;2022-10-16T00:27:59;7.50;;;5.82;;
5533;SDS011;2789;51.902;7.636;2022-10-16T00:29:01;12.52;;;6.05;;
5533;SDS011;2789;51.902;7.636;2022-10-16T00:30:05;8.00;;;5.80;;
5533;SDS011;2789;51.902;7.636;2022-10-16T00:31:10;11.07;;;5.80;;
5533;SDS011;2789;51.902;7.636;2022-10-16T00:32:13;8.40;;;5.90;;
5533;SDS011;2789;51.902;7.636;2022-10-16T00:33:15;12.80;;;6.40;;
5533;SDS011;2789;51.902;7.636;2022-10-16T00:34:17;10.65;;;5.60;;
5533;SDS011;2789;51.902;7.636;2022-10-16T00:35:20;11.80;;;6.13;;
5533;SDS011;2789;51.902;7.636;2022-10-16T00:36:23;11.52;;;5.65;;
5533;SDS011;2789;51.902;7.636;2022-10-16T00:37:26;9.38;;;6.10;;
5533;SDS011;2789;51.902;7.636;2022-10-16T00:38:28;10.27;;;6.45;;
5533;SDS011;2789;51.902;7.636;2022-10-16T00:39:30;11.32;;;6.13;;
5533;SDS011;2789;51.902;7.636;2022-10-16T00:40:33;9.50;;;5.97;;
5533;SDS011;2789;51.902;7.636;2022-10-16T00:41:36;8.75;;;6.05;;
5533;SDS011;2789;51.902;7.636;2022-10-16T00:42:38;11.93;;;7.15;;
5533;SDS011;2789;51.902;7.636;2022-10-16T00:43:41;13.57;;;6.45;;
5533;SDS011;2789;51.902;7.636;2022-10-16T00:44:46;10.02;;;6.35;;
5533;SDS011;2789;51.902;7.636;2022-10-16T00:45:50;8.77;;;6.00;;
5533;SDS011;2789;51.902;7.636;2022-10-16T00:46:52;13.82;;;6.95;;
5533;SDS011;2789;51.902;7.636;2022-10-16T00:47:55;8.90;;;6.07;;
5533;SDS011;2789;51.902;7.636;2022-10-16T00:48:59;10.30;;;7.00;;
5533;SDS011;2789;51.902;7.636;2022-10-16T00:50:05;10.68;;;6.20;;
5533;SDS011;2789;51.902;7.636;2022-10-16T00:51:09;10.35;;;5.90;;
5533;SDS011;2789;51.902;7.636;2022-10-16T00:52:12;12.05;;;6.28;;
5533;SDS011;2789;51.902;7.636;2022-10-16T00:53:14;12.55;;;7.30;;
5533;SDS011;2789;51.902;7.636;2022-10-16T00:54:19;8.18;;;6.50;;
5533;SDS011;2789;51.902;7.636;2022-10-16T00:55:23;9.80;;;6.57;;
5533;SDS011;2789;51.902;7.636;2022-10-16T00:56:27;12.85;;;7.40;;
5533;SDS011;2789;51.902;7.636;2022-10-16T00:57:29;13.95;;;7.28;;
5533;SDS011;2789;51.902;7.636;2022-10-16T00:58:32;12.88;;;7.43;;
5533;SDS011;2789;51.902;7.636;2022-10-16T00:59:34;9.75;;;6.55;;
5533;SDS011;2789;51.902;7.636;2022-10-16T01:00:38;10.65;;;6.47;;
5533;SDS011;2789;51.902;7.636;2022-10-16T01:01:40;9.15;;;6.72;;
5533;SDS011;2789;51.902;7.636;2022-10-16T01:02:42;9.65;;;6.57;;
5533;SDS011;2789;51.902;7.636;2022-10-16T01:03:44;12.70;;;7.10;;
5533;SDS011;2789;51.902;7.636;2022-10-16T01:04:47;10.90;;;6.97;;
5533;SDS011;2789;51.902;7.636;2022-10-16T01:05:52;9.52;;;6.68;;
5533;SDS011;2789;51.902;7.636;2022-10-16T01:07:02;10.40;;;7.03;;
5533;SDS011;2789;51.902;7.636;2022-10-16T01:08:08;9.68;;;6.00;;
5533;SDS011;2789;51.902;7.636;2022-10-16T01:09:16;14.38;;;7.45;;
5533;SDS011;2789;51.902;7.636;2022-10-16T01:10:22;14.15;;;7.18;;
5533;SDS011;2789;51.902;7.636;2022-10-16T01:11:32;13.38;;;8.43;;
5533;SDS011;2789;51.902;7.636;2022-10-16T01:12:38;13.43;;;7.63;;
5533;SDS011;2789;51.902;7.636;2022-10-16T01:13:48;14.07;;;8.18;;
5533;SDS011;2789;51.902;7.636;2022-10-16T01:14:53;12.75;;;7.53;;
5533;SDS011;2789;51.902;7.636;2022-10-16T01:15:59;12.93;;;8.25;;
5533;SDS011;2789;51.902;7.636;2022-10-16T01:17:06;10.02;;;7.72;;
5533;SDS011;2789;51.902;7.636;2022-10-16T01:18:14;12.32;;;6.95;;
5533;SDS011;2789;51.902;7.636;2022-10-16T01:19:20;9.15;;;7.28;;
5533;SDS011;2789;51.902;7.636;2022-10-16T01:20:29;12.02;;;7.43;;
5533;SDS011;2789;51.902;7.636;2022-10-16T01:21:33;7.50;;;5.53;;
5533;SDS011;2789;51.902;7.636;2022-10-16T01:22:39;12.82;;;7.68;;
5533;SDS011;2789;51.902;7.636;2022-10-16T01:23:48;14.07;;;7.43;;
5533;SDS011;2789;51.902;7.636;2022-10-16T01:24:56;12.07;;;7.10;;
5533;SDS011;2789;51.902;7.636;2022-10-16T01:26:08;9.55;;;6.82;;
5533;SDS011;2789;51.902;7.636;2022-10-16T01:27:17;13.32;;;7.43;;
5533;SDS011;2789;51.902;7.636;2022-10-16T01:28:22;16.33;;;8.52;;
5533;SDS011;2789;51.902;7.636;2022-10-16T01:29:31;12.32;;;7.32;;
5533;SDS011;2789;51.902;7.636;2022-10-16T01:30:35;11.82;;;7.75;;
5533;SDS011;2789;51.902;7.636;2022-10-16T01:31:39;12.10;;;7.80;;
5533;SDS011;2789;51.902;7.636;2022-10-16T01:32:43;13.80;;;8.27;;
5533;SDS011;2789;51.902;7.636;2022-10-16T01:33:50;13.57;;;8.20;;
5533;SDS011;2789;51.902;7.636;2022-10-16T01:35:00;9.85;;;6.80;;
5533;SDS011;2789;51.902;7.636;2022-10-16T01:36:06;11.27;;;7.65;;
5533;SDS011;2789;51.902;7.636;2022-10-16T01:37:11;15.05;;;7.60;;
5533;SDS011;2789;51.902;7.636;2022-10-16T01:38:17;12.07;;;7.07;;
5533;SDS011;2789;51.902;7.636;2022-10-16T01:39:21;16.60;;;8.25;;
5533;SDS011;2789;51.902;7.636;2022-10-16T01:40:26;12.13;;;7.88;;
5533;SDS011;2789;51.902;7.636;2022-10-16T01:41:30;11.75;;;8.27;;
5533;SDS011;2789;51.902;7.636;2022-10-16T01:42:36;6.70;;;5.53;;
5533;SDS011;2789;51.902;7.636;2022-10-16T01:43:40;10.10;;;7.45;;
5533;SDS011;2789;51.902;7.636;2022-10-16T01:44:47;13.15;;;7.63;;
5533;SDS011;2789;51.902;7.636;2022-10-16T01:45:49;14.20;;;8.15;;
5533;SDS011;2789;51.902;7.636;2022-10-16T01:46:52;12.40;;;8.05;;
5533;SDS011;2789;51.902;7.636;2022-10-16T01:47:54;9.52;;;6.85;;
5533;SDS011;2789;51.902;7.636;2022-10-16T01:48:58;7.72;;;5.80;;
5533;SDS011;2789;51.902;7.636;2022-10-16T01:50:01;12.68;;;7.82;;
5533;SDS011;2789;51.902;7.636;2022-10-16T01:51:06;12.10;;;8.48;;
5533;SDS011;2789;51.902;7.636;2022-10-16T01:52:11;13.55;;;7.07;;
5533;SDS011;2789;51.902;7.636;2022-10-16T01:53:15;14.07;;;7.78;;
5533;SDS011;2789;51.902;7.636;2022-10-16T01:54:18;9.13;;;6.40;;
5533;SDS011;2789;51.902;7.636;2022-10-16T01:55:23;10.40;;;7.13;;
5533;SDS011;2789;51.902;7.636;2022-10-16T01:56:27;12.20;;;7.28;;
5533;SDS011;2789;51.902;7.636;2022-10-16T01:57:31;13.13;;;6.85;;
5533;SDS011;2789;51.902;7.636;2022-10-16T01:58:35;14.95;;;6.75;;
5533;SDS011;2789;51.902;7.636;2022-10-16T01:59:40;13.63;;;6.65;;
5533;SDS011;2789;51.902;7.636;2022-10-16T02:00:44;15.85;;;7.63;;
5533;SDS011;2789;51.902;7.636;2022-10-16T02:01:48;12.10;;;6.78;;
5533;SDS011;2789;51.902;7.636;2022-10-16T02:02:53;9.30;;;6.18;;
5533;SDS011;2789;51.902;7.636;2022-10-16T02:03:57;8.85;;;6.88;;
5533;SDS011;2789;51.902;7.636;2022-10-16T02:05:04;10.05;;;7.20;;
5533;SDS011;2789;51.902;7.636;2022-10-16T02:06:08;11.15;;;7.10;;
5533;SDS011;2789;51.902;7.636;2022-10-16T02:07:10;11.60;;;8.32;;
5533;SDS011;2789;51.902;7.636;2022-10-16T02:08:13;12.52;;;7.50;;
5533;SDS011;2789;51.902;7.636;2022-10-16T02:09:15;9.63;;;8.05;;
5533;SDS011;2789;51.902;7.636;2022-10-16T02:10:18;11.32;;;8.15;;
5533;SDS011;2789;51.902;7.636;2022-10-16T02:11:19;12.25;;;7.72;;
5533;SDS011;2789;51.902;7.636;2022-10-16T02:12:23;11.68;;;7.15;;
5533;SDS011;2789;51.902;7.636;2022-10-16T02:13:30;9.88;;;6.90;;
5533;SDS011;2789;51.902;7.636;2022-10-16T02:14:34;12.80;;;7.72;;
5533;SDS011;2789;51.902;7.636;2022-10-16T02:15:39;10.77;;;7.05;;
5533;SDS011;2789;51.902;7.636;2022-10-16T02:16:42;13.95;;;7.50;;
5533;SDS011;2789;51.902;7.636;2022-10-16T02:17:45;10.02;;;7.32;;
5533;SDS011;2789;51.902;7.636;2022-10-16T02:18:47;18.10;;;7.05;;
5533;SDS011;2789;51.902;7.636;2022-10-16T02:19:50;8.07;;;5.68;;
5533;SDS011;2789;51.902;7.636;2022-10-16T02:20:55;6.22;;;5.07;;
5533;SDS011;2789;51.902;7.636;2022-10-16T02:22:00;10.60;;;6.90;;
5533;SDS011;2789;51.902;7.636;2022-10-16T02:23:07;9.48;;;6.95;;
5533;SDS011;2789;51.902;7.636;2022-10-16T02:24:13;11.43;;;6.50;;
5533;SDS011;2789;51.902;7.636;2022-10-16T02:25:22;9.40;;;6.43;;
5533;SDS011;2789;51.902;7.636;2022-10-16T02:26:27;9.70;;;6.82;;
5533;SDS011;2789;51.902;7.636;2022-10-16T02:27:33;10.00;;;6.70;;
5533;SDS011;2789;51.902;7.636;2022-10-16T02:28:38;10.32;;;6.93;;
5533;SDS011;2789;51.902;7.636;2022-10-16T02:29:45;12.30;;;6.80;;
5533;SDS011;2789;51.902;7.636;2022-10-16T02:30:51;9.23;;;5.78;;
5533;SDS011;2789;51.902;7.636;2022-10-16T02:31:57;8.02;;;5.65;;
5533;SDS011;2789;51.902;7.636;2022-10-16T02:33:00;7.15;;;5.22;;
5533;SDS011;2789;51.902;7.636;2022-10-16T02:34:05;7.93;;;5.97;;
5533;SDS011;2789;51.902;7.636;2022-10-16T02:35:07;12.93;;;6.80;;
5533;SDS011;2789;51.902;7.636;2022-10-16T02:36:10;10.82;;;6.43;;
5533;SDS011;2789;51.902;7.636;2022-10-16T02:37:12;7.97;;;5.85;;
5533;SDS011;2789;51.902;7.636;2022-10-16T02:38:15;10.73;;;6.35;;
5533;SDS011;2789;51.902;7.636;2022-10-16T02:39:18;11.48;;;5.97;;
5533;SDS011;2789;51.902;7.636;2022-10-16T02:40:20;9.30;;;6.18;;
5533;SDS011;2789;51.902;7.636;2022-10-16T02:41:25;9.20;;;5.97;;
5533;SDS011;2789;51.902;7.636;2022-10-16T02:42:27;13.38;;;6.22;;
5533;SDS011;2789;51.902;7.636;2022-10-16T02:43:30;7.45;;;4.72;;
5533;SDS011;2789;51.902;7.636;2022-10-16T02:44:32;9.90;;;6.30;;
5533;SDS011;2789;51.902;7.636;2022-10-16T02:45:36;9.65;;;5.80;;
5533;SDS011;2789;51.902;7.636;2022-10-16T02:46:38;9.70;;;5.95;;
5533;SDS011;2789;51.902;7.636;2022-10-16T02:47:41;8.85;;;5.85;;
5533;SDS011;2789;51.902;7.636;2022-10-16T02:48:42;8.52;;;6.00;;
5533;SDS011;2789;51.902;7.636;2022-10-16T02:49:45;9.98;;;6.47;;
5533;SDS011;2789;51.902;7.636;2022-10-16T02:50:46;8.35;;;6.10;;
5533;SDS011;2789;51.902;7.636;2022-10-16T02:51:49;7.75;;;6.35;;
5533;SDS011;2789;51.902;7.636;2022-10-16T02:52:50;10.40;;;6.05;;
5533;SDS011;2789;51.902;7.636;2022-10-16T02:53:53;9.02;;;6.00;;
5533;SDS011;2789;51.902;7.636;2022-10-16T02:54:54;10.35;;;6.50;;
5533;SDS011;2789;51.902;7.636;2022-10-16T02:55:57;7.22;;;6.00;;
5533;SDS011;2789;51.902;7.636;2022-10-16T02:56:58;8.65;;;6.32;;
5533;SDS011;2789;51.902;7.636;2022-10-16T02:58:01;8.15;;;5.60;;
5533;SDS011;2789;51.902;7.636;2022-10-16T02:59:03;8.23;;;5.85;;
5533;SDS011;2789;51.902;7.636;2022-10-16T03:00:06;10.20;;;6.20;;
5533;SDS011;2789;51.902;7.636;2022-10-16T03:01:09;10.70;;;5.72;;
5533;SDS011;2789;51.902;7.636;2022-10-16T03:02:13;10.60;;;6.25;;
5533;SDS011;2789;51.902;7.636;2022-10-16T03:03:15;9.73;;;5.85;;
5533;SDS011;2789;51.902;7.636;2022-10-16T03:04:18;7.10;;;5.20;;
5533;SDS011;2789;51.902;7.636;2022-10-16T03:05:19;7.53;;;4.75;;
5533;SDS011;2789;51.902;7.636;2022-10-16T03:06:27;9.10;;;5.35;;
5533;SDS011;2789;51.902;7.636;2022-10-16T03:07:28;7.60;;;5.00;;
5533;SDS011;2789;51.902;7.636;2022-10-16T03:08:31;8.30;;;5.95;;
5533;SDS011;2789;51.902;7.636;2022-10-16T03:09:32;7.82;;;5.53;;
5533;SDS011;2789;51.902;7.636;2022-10-16T03:10:35;7.70;;;5.80;;
5533;SDS011;2789;51.902;7.636;2022-10-16T03:11:37;7.80;;;5.28;;
5533;SDS011;2789;51.902;7.636;2022-10-16T03:12:39;7.43;;;5.88;;
5533;SDS011;2789;51.902;7.636;2022-10-16T03:13:41;7.25;;;5.07;;
5533;SDS011;2789;51.902;7.636;2022-10-16T03:14:43;8.02;;;5.47;;
5533;SDS011;2789;51.902;7.636;2022-10-16T03:15:45;9.35;;;5.63;;
5533;SDS011;2789;51.902;7.636;2022-10-16T03:16:49;6.97;;;4.97;;
5533;SDS011;2789;51.902;7.636;2022-10-16T03:17:50;6.57;;;5.28;;
5533;SDS011;2789;51.902;7.636;2022-10-16T03:18:53;9.10;;;5.28;;
5533;SDS011;2789;51.902;7.636;2022-10-16T03:19:54;8.38;;;5.50;;
5533;SDS011;2789;51.902;7.636;2022-10-16T03:20:57;8.07;;;5.85;;
5533;SDS011;2789;51.902;7.636;2022-10-16T03:21:58;7.97;;;5.50;;
5533;SDS011;2789;51.902;7.636;2022-10-16T03:23:01;7.93;;;5.32;;
5533;SDS011;2789;51.902;7.636;2022-10-16T03:24:04;6.72;;;5.05;;
5533;SDS011;2789;51.902;7.636;2022-10-16T03:25:07;9.77;;;5.43;;
5533;SDS011;2789;51.902;7.636;2022-10-16T03:26:09;8.52;;;6.22;;
5533;SDS011;2789;51.902;7.636;2022-10-16T03:27:11;8.07;;;6.03;;
5533;SDS011;2789;51.902;7.636;2022-10-16T03:28:13;7.10;;;5.35;;
5533;SDS011;2789;51.902;7.636;2022-10-16T03:29:15;9.60;;;5.90;;
5533;SDS011;2789;51.902;7.636;2022-10-16T03:30:17;8.75;;;5.70;;
5533;SDS011;2789;51.902;7.636;2022-10-16T03:31:19;7.68;;;5.43;;
5533;SDS011;2789;51.902;7.636;2022-10-16T03:32:22;8.13;;;5.53;;
5533;SDS011;2789;51.902;7.636;2022-10-16T03:33:26;7.00;;;4.95;;
5533;SDS011;2789;51.902;7.636;2022-10-16T03:34:27;8.60;;;5.68;;
5533;SDS011;2789;51.902;7.636;2022-10-16T03:35:30;8.85;;;6.15;;
5533;SDS011;2789;51.902;7.636;2022-10-16T03:36:32;8.32;;;6.03;;
5533;SDS011;2789;51.902;7.636;2022-10-16T03:37:35;7.13;;;5.32;;
5533;SDS011;2789;51.902;7.636;2022-10-16T03:38:37;9.57;;;6.05;;
5533;SDS011;2789;51.902;7.636;2022-10-16T03:39:39;7.07;;;5.68;;
5533;SDS011;2789;51.902;7.636;2022-10-16T03:40:41;9.32;;;5.45;;
5533;SDS011;2789;51.902;7.636;2022-10-16T03:41:43;8.73;;;6.18;;
5533;SDS011;2789;51.902;7.636;2022-10-16T03:42:45;9.85;;;5.95;;
5533;SDS011;2789;51.902;7.636;2022-10-16T03:43:46;7.55;;;5.45;;
5533;SDS011;2789;51.902;7.636;2022-10-16T03:44:49;9.82;;;5.35;;
5533;SDS011;2789;51.902;7.636;2022-10-16T03:45:51;10.55;;;5.38;;
5533;SDS011;2789;51.902;7.636;2022-10-16T03:46:53;10.10;;;6.15;;
5533;SDS011;2789;51.902;7.636;2022-10-16T03:47:56;9.55;;;5.80;;
5533;SDS011;2789;51.902;7.636;2022-10-16T03:48:58;8.18;;;5.43;;
5533;SDS011;2789;51.902;7.636;2022-10-16T03:50:00;9.23;;;5.93;;
5533;SDS011;2789;51.902;7.636;2022-10-16T03:51:03;7.55;;;5.28;;
5533;SDS011;2789;51.902;7.636;2022-10-16T03:52:04;8.43;;;6.03;;
5533;SDS011;2789;51.902;7.636;2022-10-16T03:53:07;9.52;;;5.38;;
5533;SDS011;2789;51.902;7.636;2022-10-16T03:54:09;8.90;;;5.32;;
5533;SDS011;2789;51.902;7.636;2022-10-16T03:55:12;11.43;;;5.88;;
5533;SDS011;2789;51.902;7.636;2022-10-16T03:56:13;7.68;;;5.28;;
5533;SDS011;2789;51.902;7.636;2022-10-16T03:57:16;7.20;;;5.70;;
5533;SDS011;2789;51.902;7.636;2022-10-16T03:58:17;8.18;;;5.05;;
5533;SDS011;2789;51.902;7.636;2022-10-16T03:59:21;7.65;;;5.30;;
5533;SDS011;2789;51.902;7.636;2022-10-16T04:00:22;8.23;;;5.75;;
5533;SDS011;2789;51.902;7.636;2022-10-16T04:01:25;7.55;;;5.63;;
5533;SDS011;2789;51.902;7.636;2022-10-16T04:02:26;7.78;;;5.50;;
5533;SDS011;2789;51.902;7.636;2022-10-16T04:03:30;6.35;;;4.80;;
5533;SDS011;2789;51.902;7.636;2022-10-16T04:04:32;6.68;;;5.22;;
5533;SDS011;2789;51.902;7.636;2022-10-16T04:05:34;7.78;;;4.97;;
5533;SDS011;2789;51.902;7.636;2022-10-16T04:06:36;7.90;;;4.65;;
5533;SDS011;2789;51.902;7.636;2022-10-16T04:07:38;8.70;;;5.18;;
5533;SDS011;2789;51.902;7.636;2022-10-16T04:08:41;12.43;;;6.35;;
5533;SDS011;2789;51.902;7.636;2022-10-16T04:09:44;8.63;;;5.25;;
5533;SDS011;2789;51.902;7.636;2022-10-16T04:10:46;8.27;;;5.05;;
5533;SDS011;2789;51.902;7.636;2022-10-16T04:11:48;7.35;;;4.72;;
5533;SDS011;2789;51.902;7.636;2022-10-16T04:12:50;6.50;;;5.20;;
5533;SDS011;2789;51.902;7.636;2022-10-16T04:13:55;7.13;;;5.22;;
5533;SDS011;2789;51.902;7.636;2022-10-16T04:14:57;7.30;;;5.05;;
5533;SDS011;2789;51.902;7.636;2022-10-16T04:16:00;9.88;;;5.55;;
5533;SDS011;2789;51.902;7.636;2022-10-16T04:17:01;7.10;;;4.70;;
5533;SDS011;2789;51.902;7.636;2022-10-16T04:18:04;8.95;;;4.80;;
5533;SDS011;2789;51.902;7.636;2022-10-16T04:19:07;7.03;;;5.05;;
5533;SDS011;2789;51.902;7.636;2022-10-16T04:20:11;6.65;;;5.03;;
5533;SDS011;2789;51.902;7.636;2022-10-16T04:21:12;5.93;;;4.50;;
5533;SDS011;2789;51.902;7.636;2022-10-16T04:22:15;6.32;;;4.80;;
5533;SDS011;2789;51.902;7.636;2022-10-16T04:23:16;6.28;;;5.07;;
5533;SDS011;2789;51.902;7.636;2022-10-16T04:24:19;7.90;;;5.60;;
5533;SDS011;2789;51.902;7.636;2022-10-16T04:25:21;10.60;;;5.32;;
5533;SDS011;2789;51.902;7.636;2022-10-16T04:26:23;7.60;;;5.20;;
5533;SDS011;2789;51.902;7.636;2022-10-16T04:27:25;9.02;;;5.40;;
5533;SDS011;2789;51.902;7.636;2022-10-16T04:28:28;6.70;;;4.55;;
5533;SDS011;2789;51.902;7.636;2022-10-16T04:29:30;5.88;;;4.97;;
5533;SDS011;2789;51.902;7.636;2022-10-16T04:30:32;12.15;;;4.85;;
5533;SDS011;2789;51.902;7.636;2022-10-16T04:31:34;7.45;;;5.25;;
5533;SDS011;2789;51.902;7.636;2022-10-16T04:32:37;6.90;;;5.03;;
5533;SDS011;2789;51.902;7.636;2022-10-16T04:33:38;9.90;;;5.22;;
5533;SDS011;2789;51.902;7.636;2022-10-16T04:34:42;8.38;;;4.53;;
5533;SDS011;2789;51.902;7.636;2022-10-16T04:35:44;5.47;;;4.70;;
5533;SDS011;2789;51.902;7.636;2022-10-16T04:36:46;6.18;;;4.55;;
5533;SDS011;2789;51.902;7.636;2022-10-16T04:37:49;5.70;;;4.25;;
5533;SDS011;2789;51.902;7.636;2022-10-16T04:38:52;8.27;;;5.07;;
5533;SDS011;2789;51.902;7.636;2022-10-16T04:39:53;9.23;;;5.32;;
5533;SDS011;2789;51.902;7.636;2022-10-16T04:40:56;8.65;;;4.93;;
5533;SDS011;2789;51.902;7.636;2022-10-16T04:41:57;6.85;;;4.70;;
5533;SDS011;2789;51.902;7.636;2022-10-16T04:43:00;6.75;;;4.82;;
5533;SDS011;2789;51.902;7.636;2022-10-16T04:44:02;5.50;;;3.97;;
5533;SDS011;2789;51.902;7.636;2022-10-16T04:45:05;5.82;;;4.70;;
5533;SDS011;2789;51.902;7.636;2022-10-16T04:46:07;6.28;;;4.65;;
5533;SDS011;2789;51.902;7.636;2022-10-16T04:47:11;10.88;;;4.60;;
5533;SDS011;2789;51.902;7.636;2022-10-16T04:48:13;7.40;;;5.13;;
5533;SDS011;2789;51.902;7.636;2022-10-16T04:49:16;6.70;;;5.15;;
5533;SDS011;2789;51.902;7.636;2022-10-16T04:50:19;5.93;;;4.45;;
5533;SDS011;2789;51.902;7.636;2022-10-16T04:51:21;8.00;;;4.38;;
5533;SDS011;2789;51.902;7.636;2022-10-16T04:52:23;7.93;;;5.30;;
5533;SDS011;2789;51.902;7.636;2022-10-16T04:53:27;7.32;;;3.92;;
5533;SDS011;2789;51.902;7.636;2022-10-16T04:54:28;7.05;;;5.30;;
5533;SDS011;2789;51.902;7.636;2022-10-16T04:55:31;7.70;;;5.03;;
5533;SDS011;2789;51.902;7.636;2022-10-16T04:56:33;6.82;;;4.13;;
5533;SDS011;2789;51.902;7.636;2022-10-16T04:57:41;7.68;;;4.97;;
5533;SDS011;2789;51.902;7.636;2022-10-16T04:58:42;6.55;;;4.72;;
5533;SDS011;2789;51.902;7.636;2022-10-16T04:59:45;8.02;;;5.38;;
5533;SDS011;2789;51.902;7.636;2022-10-16T05:00:46;6.82;;;4.82;;
5533;SDS011;2789;51.902;7.636;2022-10-16T05:01:49;8.40;;;4.22;;
5533;SDS011;2789;51.902;7.636;2022-10-16T05:02:51;5.00;;;3.85;;
5533;SDS011;2789;51.902;7.636;2022-10-16T05:03:53;7.80;;;4.80;;
5533;SDS011;2789;51.902;7.636;2022-10-16T05:04:55;4.15;;;3.75;;
5533;SDS011;2789;51.902;7.636;2022-10-16T05:05:59;7.72;;;4.25;;
5533;SDS011;2789;51.902;7.636;2022-10-16T05:07:01;4.90;;;4.10;;
5533;SDS011;2789;51.902;7.636;2022-10-16T05:08:03;6.05;;;4.47;;
5533;SDS011;2789;51.902;7.636;2022-10-16T05:09:06;7.70;;;4.45;;
5533;SDS011;2789;51.902;7.636;2022-10-16T05:10:07;7.05;;;4.45;;
5533;SDS011;2789;51.902;7.636;2022-10-16T05:11:10;5.47;;;3.88;;
5533;SDS011;2789;51.902;7.636;2022-10-16T05:12:12;3.95;;;3.45;;
5533;SDS011;2789;51.902;7.636;2022-10-16T05:13:14;5.95;;;4.38;;
5533;SDS011;2789;51.902;7.636;2022-10-16T05:14:16;5.05;;;4.15;;
5533;SDS011;2789;51.902;7.636;2022-10-16T05:15:19;4.55;;;3.95;;
5533;SDS011;2789;51.902;7.636;2022-10-16T05:16:20;6.47;;;4.32;;
5533;SDS011;2789;51.902;7.636;2022-10-16T05:17:23;6.38;;;4.78;;
5533;SDS011;2789;51.902;7.636;2022-10-16T05:18:25;5.18;;;3.97;;
5533;SDS011;2789;51.902;7.636;2022-10-16T05:19:27;7.60;;;4.40;;
5533;SDS011;2789;51.902;7.636;2022-10-16T05:20:29;5.90;;;4.43;;
5533;SDS011;2789;51.902;7.636;2022-10-16T05:21:33;5.50;;;4.03;;
5533;SDS011;2789;51.902;7.636;2022-10-16T05:22:36;6.32;;;4.13;;
5533;SDS011;2789;51.902;7.636;2022-10-16T05:23:37;4.80;;;4.28;;
5533;SDS011;2789;51.902;7.636;2022-10-16T05:24:40;6.57;;;4.05;;
5533;SDS011;2789;51.902;7.636;2022-10-16T05:25:41;4.45;;;3.75;;
5533;SDS011;2789;51.902;7.636;2022-10-16T05:26:44;6.10;;;4.47;;
5533;SDS011;2789;51.902;7.636;2022-10-16T05:27:46;6.47;;;4.10;;
5533;SDS011;2789;51.902;7.636;2022-10-16T05:28:49;6.60;;;4.20;;
5533;SDS011;2789;51.902;7.636;2022-10-16T05:29:51;3.72;;;3.30;;
5533;SDS011;2789;51.902;7.636;2022-10-16T05:30:53;6.28;;;3.60;;
5533;SDS011;2789;51.902;7.636;2022-10-16T05:31:55;4.63;;;3.50;;
5533;SDS011;2789;51.902;7.636;2022-10-16T05:32:57;6.13;;;4.22;;
5533;SDS011;2789;51.902;7.636;2022-10-16T05:33:59;6.18;;;4.00;;
5533;SDS011;2789;51.902;7.636;2022-10-16T05:35:02;5.70;;;4.38;;
5533;SDS011;2789;51.902;7.636;2022-10-16T05:36:09;6.68;;;4.07;;
5533;SDS011;2789;51.902;7.636;2022-10-16T05:37:13;5.18;;;3.78;;
5533;SDS011;2789;51.902;7.636;2022-10-16T05:38:15;5.07;;;4.00;;
5533;SDS011;2789;51.902;7.636;2022-10-16T05:39:17;3.70;;;2.85;;
5533;SDS011;2789;51.902;7.636;2022-10-16T05:40:20;6.78;;;4.35;;
5533;SDS011;2789;51.902;7.636;2022-10-16T05:41:21;5.07;;;3.67;;
5533;SDS011;2789;51.902;7.636;2022-10-16T05:42:26;5.85;;;3.47;;
5533;SDS011;2789;51.902;7.636;2022-10-16T05:43:29;3.97;;;3.17;;
5533;SDS011;2789;51.902;7.636;2022-10-16T05:44:31;4.93;;;2.92;;
5533;SDS011;2789;51.902;7.636;2022-10-16T05:45:39;3.58;;;3.13;;
5533;SDS011;2789;51.902;7.636;2022-10-16T05:46:40;3.55;;;3.05;;
5533;SDS011;2789;51.902;7.636;2022-10-16T05:47:43;7.70;;;3.45;;
5533;SDS011;2789;51.902;7.636;2022-10-16T05:48:44;2.92;;;2.63;;
5533;SDS011;2789;51.902;7.636;2022-10-16T05:49:47;5.70;;;3.90;;
5533;SDS011;2789;51.902;7.636;2022-10-16T05:50:48;3.40;;;3.10;;
5533;SDS011;2789;51.902;7.636;2022-10-16T05:51:58;6.93;;;3.60;;
5533;SDS011;2789;51.902;7.636;2022-10-16T05:53:01;4.00;;;2.70;;
5533;SDS011;2789;51.902;7.636;2022-10-16T05:54:04;5.25;;;3.00;;
5533;SDS011;2789;51.902;7.636;2022-10-16T05:55:06;2.95;;;2.35;;
5533;SDS011;2789;51.902;7.636;2022-10-16T05:56:10;4.60;;;2.92;;
5533;SDS011;2789;51.902;7.636;2022-10-16T05:57:12;4.32;;;3.10;;
5533;SDS011;2789;51.902;7.636;2022-10-16T05:58:15;2.83;;;2.63;;
5533;SDS011;2789;51.902;7.636;2022-10-16T05:59:16;3.15;;;2.60;;
5533;SDS011;2789;51.902;7.636;2022-10-16T06:00:19;3.08;;;2.65;;
5533;SDS011;2789;51.902;7.636;2022-10-16T06:01:21;3.08;;;2.78;;
5533;SDS011;2789;51.902;7.636;2022-10-16T06:02:25;3.78;;;2.70;;
5533;SDS011;2789;51.902;7.636;2022-10-16T06:03:27;4.10;;;2.55;;
5533;SDS011;2789;51.902;7.636;2022-10-16T06:04:29;2.53;;;2.33;;
5533;SDS011;2789;51.902;7.636;2022-10-16T06:05:32;3.05;;;2.72;;
5533;SDS011;2789;51.902;7.636;2022-10-16T06:06:33;3.50;;;2.40;;
5533;SDS011;2789;51.902;7.636;2022-10-16T06:07:37;2.30;;;2.10;;
5533;SDS011;2789;51.902;7.636;2022-10-16T06:08:40;2.72;;;2.03;;
5533;SDS011;2789;51.902;7.636;2022-10-16T06:09:43;3.58;;;2.45;;
5533;SDS011;2789;51.902;7.636;2022-10-16T06:10:45;2.05;;;1.83;;
5533;SDS011;2789;51.902;7.636;2022-10-16T06:11:48;2.25;;;2.05;;
5533;SDS011;2789;51.902;7.636;2022-10-16T06:12:49;3.38;;;2.20;;
5533;SDS011;2789;51.902;7.636;2022-10-16T06:13:52;6.05;;;2.20;;
5533;SDS011;2789;51.902;7.636;2022-10-16T06:14:54;1.98;;;1.77;;
5533;SDS011;2789;51.902;7.636;2022-10-16T06:15:57;3.30;;;2.35;;
5533;SDS011;2789;51.902;7.636;2022-10-16T06:16:59;2.65;;;2.40;;
5533;SDS011;2789;51.902;7.636;2022-10-16T06:18:02;2.47;;;2.08;;
5533;SDS011;2789;51.902;7.636;2022-10-16T06:19:03;2.03;;;1.80;;
5533;SDS011;2789;51.902;7.636;2022-10-16T06:20:07;2.10;;;1.90;;
5533;SDS011;2789;51.902;7.636;2022-10-16T06:21:10;2.42;;;2.00;;
5533;SDS011;2789;51.902;7.636;2022-10-16T06:22:14;2.10;;;1.83;;
5533;SDS011;2789;51.902;7.636;2022-10-16T06:23:17;3.13;;;2.15;;
5533;SDS011;2789;51.902;7.636;2022-10-16T06:24:21;2.65;;;2.08;;
5533;SDS011;2789;51.902;7.636;2022-10-16T06:25:22;2.92;;;2.00;;
5533;SDS011;2789;51.902;7.636;2022-10-16T06:26:25;1.85;;;1.70;;
5533;SDS011;2789;51.902;7.636;2022-10-16T06:27:27;2.05;;;1.70;;
5533;SDS011;2789;51.902;7.636;2022-10-16T06:28:30;1.90;;;1.63;;
5533;SDS011;2789;51.902;7.636;2022-10-16T06:29:32;4.55;;;1.92;;
5533;SDS011;2789;51.902;7.636;2022-10-16T06:30:34;1.70;;;1.60;;
5533;SDS011;2789;51.902;7.636;2022-10-16T06:31:36;2.08;;;1.88;;